Time;durP1;ratioP1;P1;durP2;ratioP2;P2;SDS_P1;SDS_P2;PMS_P1;PMS_P2;Temp;Humidity;BMP_temperature;BMP_pressure;BME280_temperature;BME280_humidity;BME280_pressure;Samples;Min_cycle;Max_cycle;Signal;HPM_P1;HPM_P2
2021/04/25 00:02:27;;;;;;;4.13;1.95;;;17.60;54.10;;;;;;10480251;28;20111;-56
2021/04/25 00:07:28;;;;;;;4.60;1.55;;;17.60;54.00;;;;;;10498002;28;20028;-55
2021/04/25 00:12:30;;;;;;;2.88;1.25;;;17.60;53.90;;;;;;10480083;28;20020;-55
2021/04/25 00:17:30;;;;;;;4.78;1.75;;;17.60;53.90;;;;;;10497896;28;20036;-55
2021/04/25 00:22:31;;;;;;;2.70;1.48;;;17.60;53.80;;;;;;10497677;28;20120;-55
2021/04/25 00:27:32;;;;;;;2.58;1.38;;;17.60;53.70;;;;;;10497664;28;20036;-55
2021/04/25 00:32:33;;;;;;;2.30;1.20;;;17.60;53.80;;;;;;10497207;28;20025;-55
2021/04/25 00:37:34;;;;;;;1.83;1.13;;;17.60;53.80;;;;;;10496674;28;20085;-55
2021/04/25 00:42:35;;;;;;;3.65;1.50;;;17.50;53.80;;;;;;10496848;28;20044;-55
2021/04/25 00:47:35;;;;;;;3.08;1.67;;;17.60;53.80;;;;;;10497273;28;20028;-55
2021/04/25 00:52:40;;;;;;;2.47;1.27;;;17.60;53.70;;;;;;10497062;28;20431;-55
2021/04/25 00:57:41;;;;;;;2.38;1.08;;;17.60;53.70;;;;;;10479357;28;20029;-55
2021/04/25 01:02:42;;;;;;;3.28;1.45;;;17.60;53.70;;;;;;10479143;28;20032;-55
2021/04/25 01:07:44;;;;;;;3.60;1.63;;;17.60;53.70;;;;;;10510546;28;20035;-55
2021/04/25 01:12:45;;;;;;;2.63;1.40;;;17.60;53.60;;;;;;10496819;28;20115;-56
2021/04/25 01:17:47;;;;;;;3.03;1.33;;;17.60;53.70;;;;;;10478701;28;20392;-56
2021/04/25 01:22:49;;;;;;;2.35;1.20;;;17.60;54.20;;;;;;10496168;28;20031;-56
2021/04/25 01:27:51;;;;;;;2.22;1.30;;;17.60;53.60;;;;;;10462005;28;20028;-55
2021/04/25 01:32:51;;;;;;;3.20;1.73;;;17.60;53.60;;;;;;10496002;28;20033;-55
2021/04/25 01:37:55;;;;;;;2.28;1.38;;;17.60;53.50;;;;;;10508352;28;20047;-55
2021/04/25 01:43:02;;;;;;;2.97;1.52;;;17.60;58.10;;;;;;10495842;28;20137;-56
2021/04/25 01:48:06;;;;;;;3.03;1.23;;;17.60;59.10;;;;;;10491645;28;20032;-55
2021/04/25 01:53:10;;;;;;;2.65;1.30;;;17.70;58.80;;;;;;10503566;28;20032;-54
2021/04/25 01:58:11;;;;;;;2.92;1.42;;;17.60;57.30;;;;;;10503055;28;20113;-54
2021/04/25 02:03:14;;;;;;;3.97;1.45;;;17.70;57.60;;;;;;10502969;28;20094;-56
2021/04/25 02:08:15;;;;;;;3.05;1.52;;;17.70;57.50;;;;;;10502961;28;20047;-55
2021/04/25 02:13:17;;;;;;;3.63;1.55;;;17.70;57.60;;;;;;10502627;28;20116;-55
2021/04/25 02:18:18;;;;;;;3.13;1.60;;;17.70;57.30;;;;;;10477873;28;20055;-56
2021/04/25 02:23:19;;;;;;;2.38;1.23;;;17.60;57.20;;;;;;10502003;28;20044;-55
2021/04/25 02:28:19;;;;;;;3.90;1.48;;;17.70;57.30;;;;;;10515673;28;20453;-54
2021/04/25 02:33:20;;;;;;;2.17;1.10;;;17.70;57.30;;;;;;10501959;28;20524;-55
2021/04/25 02:38:21;;;;;;;3.17;1.13;;;17.60;57.00;;;;;;10488348;28;20419;-55
2021/04/25 02:43:22;;;;;;;1.80;1.33;;;17.60;56.90;;;;;;10501364;28;20094;-55
2021/04/25 02:48:22;;;;;;;3.10;1.40;;;17.70;56.80;;;;;;10501353;28;20037;-55
2021/04/25 02:53:23;;;;;;;4.78;1.98;;;17.70;56.60;;;;;;10501419;28;20460;-55
2021/04/25 02:58:24;;;;;;;2.50;1.27;;;17.60;56.50;;;;;;10483030;28;20024;-55
2021/04/25 03:03:25;;;;;;;2.67;1.42;;;17.60;56.40;;;;;;10499700;28;20036;-55
2021/04/25 03:08:26;;;;;;;2.60;1.42;;;17.60;56.40;;;;;;10500775;28;20338;-55
2021/04/25 03:13:27;;;;;;;2.22;1.33;;;17.60;56.40;;;;;;10482427;28;20028;-55
2021/04/25 03:18:29;;;;;;;2.58;1.33;;;17.60;56.20;;;;;;10513757;28;20029;-55
2021/04/25 03:23:29;;;;;;;3.00;1.60;;;17.60;56.10;;;;;;10499933;28;20029;-55
2021/04/25 03:28:30;;;;;;;2.03;1.50;;;17.60;56.00;;;;;;10499700;28;20111;-56
2021/04/25 03:33:31;;;;;;;2.13;1.20;;;17.60;55.90;;;;;;10499529;28;20081;-55
2021/04/25 03:38:31;;;;;;;3.22;1.40;;;17.70;55.80;;;;;;10499319;28;20059;-55
2021/04/25 03:43:32;;;;;;;2.47;1.33;;;17.70;55.80;;;;;;10498821;28;20404;-55
2021/04/25 03:48:33;;;;;;;3.20;1.67;;;17.70;55.70;;;;;;10481080;28;20473;-56
2021/04/25 03:53:34;;;;;;;2.75;1.40;;;17.60;55.60;;;;;;10512356;28;20036;-55
2021/04/25 03:58:34;;;;;;;2.85;1.55;;;17.70;55.60;;;;;;10498646;28;20362;-55
2021/04/25 04:03:35;;;;;;;2.45;1.13;;;17.60;55.40;;;;;;10498437;28;20029;-55
2021/04/25 04:08:36;;;;;;;2.17;1.27;;;17.70;55.40;;;;;;10498197;28;20025;-56
2021/04/25 04:13:37;;;;;;;3.90;1.58;;;17.70;55.30;;;;;;10497821;28;20040;-55
2021/04/25 04:18:37;;;;;;;3.53;1.10;;;17.70;55.30;;;;;;10479737;28;20423;-55
2021/04/25 04:23:38;;;;;;;3.95;1.55;;;17.70;55.20;;;;;;10495552;28;20396;-55
2021/04/25 04:28:39;;;;;;;2.45;1.13;;;17.70;55.20;;;;;;10494975;28;20469;-55
2021/04/25 04:33:39;;;;;;;2.30;1.35;;;17.70;55.10;;;;;;10479100;28;20020;-55
2021/04/25 04:38:40;;;;;;;2.45;1.38;;;17.70;55.10;;;;;;10479169;28;20040;-55
2021/04/25 04:43:41;;;;;;;1.73;0.80;;;17.70;55.10;;;;;;10496951;28;20158;-55
2021/04/25 04:48:41;;;;;;;2.47;1.25;;;17.70;55.00;;;;;;10492657;28;20032;-55
2021/04/25 04:53:42;;;;;;;2.45;1.33;;;17.60;55.00;;;;;;10497176;28;20170;-55
2021/04/25 04:58:43;;;;;;;2.63;1.10;;;17.60;55.10;;;;;;10496924;28;20029;-55
2021/04/25 05:03:43;;;;;;;2.45;1.02;;;17.70;55.20;;;;;;10478589;28;20120;-54
2021/04/25 05:08:44;;;;;;;3.90;1.50;;;17.70;55.10;;;;;;10496781;28;20499;-55
2021/04/25 05:13:45;;;;;;;4.00;1.63;;;17.60;55.30;;;;;;10496819;28;20107;-53
2021/04/25 05:18:46;;;;;;;7.22;1.33;;;17.70;55.80;;;;;;10496402;28;20031;-54
2021/04/25 05:23:47;;;;;;;6.07;1.63;;;17.70;57.70;;;;;;10498573;28;20055;-51
2021/04/25 05:28:47;;;;;;;4.57;1.70;;;17.70;57.70;;;;;;10504607;28;20061;-57
2021/04/25 05:33:48;;;;;;;6.68;1.98;;;17.70;57.40;;;;;;10503919;28;20545;-56
2021/04/25 05:38:49;;;;;;;8.35;2.05;;;17.70;57.10;;;;;;10502407;28;20477;-57
2021/04/25 05:43:50;;;;;;;6.72;2.50;;;17.70;56.90;;;;;;10503355;28;20053;-56
2021/04/25 05:48:51;;;;;;;10.18;2.05;;;17.70;56.60;;;;;;10503518;28;20103;-56
2021/04/25 05:53:52;;;;;;;16.63;3.20;;;17.60;57.00;;;;;;10482658;28;20089;-56
2021/04/25 05:58:53;;;;;;;11.90;2.58;;;17.70;57.50;;;;;;10500145;28;20036;-56
2021/04/25 06:03:53;;;;;;;9.93;2.00;;;17.60;57.40;;;;;;10485110;28;20071;-57
2021/04/25 06:08:56;;;;;;;12.85;2.58;;;17.60;57.30;;;;;;10503171;28;20024;-57
2021/04/25 06:13:56;;;;;;;7.40;2.42;;;17.60;57.00;;;;;;10502765;28;20036;-57
2021/04/25 06:18:57;;;;;;;7.25;2.38;;;17.60;57.10;;;;;;10484832;28;20403;-58
2021/04/25 06:23:58;;;;;;;7.47;2.30;;;17.50;56.80;;;;;;10483943;28;20495;-59
2021/04/25 06:28:59;;;;;;;7.05;2.15;;;17.50;56.60;;;;;;10499694;28;20107;-59
2021/04/25 06:34:00;;;;;;;6.75;2.17;;;17.50;56.50;;;;;;10481246;28;20082;-58
2021/04/25 06:39:00;;;;;;;6.25;1.73;;;17.50;56.50;;;;;;10499278;28;20040;-59
2021/04/25 06:44:01;;;;;;;9.60;2.70;;;17.50;56.50;;;;;;10500721;28;20041;-57
2021/04/25 06:49:03;;;;;;;5.28;2.40;;;17.50;56.20;;;;;;10500849;28;20765;-57
2021/04/25 06:54:04;;;;;;;4.97;1.90;;;17.50;56.10;;;;;;10500681;28;20036;-57
2021/04/25 06:59:05;;;;;;;5.25;1.98;;;17.50;56.00;;;;;;10483080;28;20112;-57
2021/04/25 07:04:06;;;;;;;5.78;2.08;;;17.50;55.90;;;;;;10482556;28;20113;-55
2021/04/25 07:09:08;;;;;;;5.97;1.75;;;17.60;56.10;;;;;;10500485;28;20025;-56
2021/04/25 07:14:09;;;;;;;6.18;1.50;;;17.60;56.00;;;;;;10500158;28;20472;-56
2021/04/25 07:19:10;;;;;;;9.93;1.90;;;17.60;55.70;;;;;;10482207;28;20040;-56
2021/04/25 07:24:10;;;;;;;8.48;2.28;;;17.60;56.00;;;;;;10481630;28;20032;-56
2021/04/25 07:29:12;;;;;;;5.18;2.13;;;17.60;55.70;;;;;;10499837;28;20369;-57
2021/04/25 07:34:13;;;;;;;7.38;1.90;;;17.60;55.40;;;;;;10499077;28;20099;-55
2021/04/25 07:39:14;;;;;;;9.75;2.58;;;17.60;55.50;;;;;;10499211;28;20021;-56
2021/04/25 07:44:16;;;;;;;7.07;2.70;;;17.50;55.10;;;;;;10497994;28;20050;-56
2021/04/25 07:49:17;;;;;;;6.15;1.83;;;17.50;55.10;;;;;;10495653;28;20104;-56
2021/04/25 07:54:18;;;;;;;4.88;1.75;;;17.50;55.20;;;;;;10494563;28;20043;-56
2021/04/25 07:59:19;;;;;;;9.38;2.17;;;17.50;55.40;;;;;;10495035;28;20078;-56
2021/04/25 08:04:20;;;;;;;5.80;1.95;;;17.50;55.50;;;;;;10486230;28;20043;-56
2021/04/25 08:09:20;;;;;;;3.75;2.03;;;17.50;55.60;;;;;;10507077;28;20024;-55
2021/04/25 08:14:22;;;;;;;5.85;1.70;;;17.40;55.60;;;;;;10497728;28;20384;-55
2021/04/25 08:19:23;;;;;;;4.82;1.55;;;17.40;55.70;;;;;;10497661;28;20023;-56
2021/04/25 08:24:24;;;;;;;5.78;1.65;;;17.40;55.80;;;;;;10486468;28;20107;-56
2021/04/25 08:29:24;;;;;;;3.92;1.40;;;17.40;55.80;;;;;;10503753;28;20025;-56
2021/04/25 08:34:25;;;;;;;6.35;1.85;;;17.40;55.90;;;;;;10479387;28;20396;-56
2021/04/25 08:39:26;;;;;;;4.88;1.48;;;17.30;55.90;;;;;;10497048;28;20048;-56
2021/04/25 08:44:27;;;;;;;4.70;1.50;;;17.30;56.00;;;;;;10496810;28;20153;-56
2021/04/25 08:49:28;;;;;;;3.17;1.52;;;17.30;56.10;;;;;;10496821;28;20028;-56
2021/04/25 08:54:30;;;;;;;3.55;1.58;;;17.30;56.80;;;;;;10496814;28;20491;-56
2021/04/25 08:59:31;;;;;;;5.75;1.30;;;17.30;56.20;;;;;;10477833;28;20111;-56
2021/04/25 09:04:31;;;;;;;4.18;1.33;;;17.30;56.30;;;;;;10496452;28;20032;-55
2021/04/25 09:09:42;;;;;;;4.55;1.10;;;17.20;56.30;;;;;;10496359;28;20373;-56
2021/04/25 09:14:43;;;;;;;2.58;1.15;;;17.20;56.40;;;;;;10496020;28;20037;-55
2021/04/25 09:19:59;;;;;;;4.05;2.03;;;17.20;56.50;;;;;;10496501;28;20141;-55
2021/04/25 09:25:12;;;;;;;2.88;1.33;;;17.20;56.60;;;;;;10477992;28;20028;-56
2021/04/25 09:30:21;;;;;;;3.45;1.73;;;17.20;56.60;;;;;;10478437;28;20031;-56
2021/04/25 09:35:22;;;;;;;4.43;2.00;;;17.20;56.60;;;;;;10495723;28;20089;-55
2021/04/25 09:40:25;;;;;;;2.90;0.90;;;17.10;56.60;;;;;;10495664;28;20025;-55
2021/04/25 09:45:39;;;;;;;2.55;1.40;;;17.10;56.60;;;;;;10495623;28;20048;-56
2021/04/25 09:50:40;;;;;;;4.55;1.58;;;17.10;56.70;;;;;;10474598;28;20029;-56
2021/04/25 09:55:42;;;;;;;3.20;1.50;;;17.10;56.80;;;;;;10495503;28;20029;-55
2021/04/25 10:00:47;;;;;;;4.22;1.20;;;17.10;56.80;;;;;;10495469;28;20021;-56
2021/04/25 10:06:04;;;;;;;3.30;1.63;;;17.10;56.80;;;;;;10495182;28;20066;-56
2021/04/25 10:11:07;;;;;;;3.28;1.23;;;17.20;56.90;;;;;;10481851;28;20036;-55
2021/04/25 10:16:08;;;;;;;4.88;1.38;;;17.20;56.80;;;;;;10484343;28;20036;-56
2021/04/25 10:21:09;;;;;;;3.95;1.52;;;17.20;56.80;;;;;;10502414;28;20119;-56
2021/04/25 10:26:14;;;;;;;1.98;1.08;;;17.20;56.90;;;;;;10502099;28;20508;-56
2021/04/25 10:31:20;;;;;;;2.05;1.08;;;17.20;56.80;;;;;;10502060;28;20472;-55
2021/04/25 10:36:23;;;;;;;1.55;0.82;;;17.20;56.80;;;;;;10484164;28;20060;-56
2021/04/25 10:41:26;;;;;;;2.83;1.15;;;17.20;56.90;;;;;;10483900;28;20024;-56
2021/04/25 10:46:52;;;;;;;1.52;0.88;;;17.20;56.80;;;;;;10501026;28;20047;-56
2021/04/25 10:51:54;;;;;;;2.85;1.40;;;17.20;56.90;;;;;;10501309;28;20037;-56
2021/04/25 10:57:07;;;;;;;1.38;0.80;;;17.20;56.90;;;;;;10483126;28;20033;-56
2021/04/25 11:02:07;;;;;;;1.30;0.80;;;17.20;57.10;;;;;;10500756;28;20036;-56
2021/04/25 11:07:38;;;;;;;1.90;1.20;;;17.20;56.90;;;;;;10482111;28;20489;-56
2021/04/25 11:12:42;;;;;;;2.92;1.00;;;17.20;57.00;;;;;;10500103;28;20032;-56
2021/04/25 11:17:43;;;;;;;2.92;1.27;;;17.30;56.90;;;;;;10500435;28;20059;-56
2021/04/25 11:22:46;;;;;;;1.77;0.80;;;17.20;57.00;;;;;;10499124;28;20035;-56
2021/04/25 11:27:47;;;;;;;2.03;1.20;;;17.30;56.90;;;;;;10499704;28;20024;-56
2021/04/25 11:32:48;;;;;;;4.80;0.95;;;17.30;56.90;;;;;;10499164;28;20036;-56
2021/04/25 11:37:49;;;;;;;2.00;0.82;;;17.30;57.00;;;;;;10480994;28;20116;-56
2021/04/25 11:42:50;;;;;;;2.13;1.05;;;17.30;57.00;;;;;;10498986;28;20040;-56
2021/04/25 11:48:03;;;;;;;3.08;1.60;;;17.30;57.20;;;;;;10480409;28;20025;-56
2021/04/25 11:53:04;;;;;;;1.90;1.30;;;17.30;56.90;;;;;;10470252;28;20029;-56
2021/04/25 11:58:05;;;;;;;3.20;1.25;;;17.30;56.90;;;;;;10498465;28;20024;-55
2021/04/25 12:03:06;;;;;;;1.83;1.00;;;17.40;57.10;;;;;;10498093;28;20498;-56
2021/04/25 12:08:13;;;;;;;1.38;0.75;;;17.40;57.00;;;;;;10474282;28;20027;-56
2021/04/25 12:13:21;;;;;;;2.65;1.25;;;17.40;56.90;;;;;;10480283;28;20024;-55
2021/04/25 12:18:43;;;;;;;1.92;0.70;;;17.50;56.90;;;;;;10497948;28;20024;-56
2021/04/25 12:23:54;;;;;;;2.20;1.00;;;17.60;56.80;;;;;;10495429;28;20098;-55
2021/04/25 12:28:56;;;;;;;1.38;0.80;;;17.50;56.70;;;;;;10497005;28;20059;-56
2021/04/25 12:33:57;;;;;;;3.15;0.85;;;17.60;56.70;;;;;;10496510;28;20043;-55
2021/04/25 12:39:07;;;;;;;1.75;1.05;;;17.60;56.70;;;;;;10496875;28;20495;-56
2021/04/25 12:44:08;;;;;;;1.73;1.10;;;17.50;56.90;;;;;;10496577;28;20132;-56
2021/04/25 12:49:11;;;;;;;2.45;1.25;;;17.50;57.00;;;;;;10479040;28;20074;-56
2021/04/25 12:54:13;;;;;;;2.15;0.77;;;17.60;56.80;;;;;;10497051;28;20047;-56
2021/04/25 12:59:34;;;;;;;1.73;0.68;;;17.50;56.90;;;;;;10497109;28;20032;-56
2021/04/25 13:04:40;;;;;;;1.98;0.80;;;17.50;56.80;;;;;;10496665;28;20485;-56
2021/04/25 13:09:43;;;;;;;1.38;0.85;;;17.50;56.90;;;;;;10496644;28;20025;-55
2021/04/25 13:15:00;;;;;;;0.90;0.70;;;17.60;57.00;;;;;;10496128;28;20099;-56
2021/04/25 13:20:10;;;;;;;1.55;0.75;;;17.60;56.80;;;;;;10496420;28;20060;-56
2021/04/25 13:25:11;;;;;;;1.73;0.95;;;17.60;57.00;;;;;;10496519;28;20109;-56
2021/04/25 13:30:13;;;;;;;1.90;1.00;;;17.60;56.90;;;;;;10496148;28;20033;-56
2021/04/25 13:35:13;;;;;;;2.33;0.80;;;17.60;56.90;;;;;;10495808;28;20032;-55
2021/04/25 13:40:14;;;;;;;1.10;0.70;;;17.70;56.80;;;;;;10478262;28;20100;-54
2021/04/25 13:45:16;;;;;;;2.15;0.95;;;17.70;56.70;;;;;;10497284;28;20051;-55
2021/04/25 13:50:17;;;;;;;1.45;0.73;;;17.70;56.70;;;;;;10503231;28;20028;-56
2021/04/25 13:55:18;;;;;;;0.98;0.60;;;17.70;56.70;;;;;;10503461;28;20027;-56
2021/04/25 14:00:24;;;;;;;1.35;0.75;;;17.80;56.70;;;;;;10503228;28;20032;-56
2021/04/25 14:05:25;;;;;;;1.83;0.90;;;17.80;56.60;;;;;;10478555;28;20064;-56
2021/04/25 14:10:28;;;;;;;1.58;0.65;;;17.80;56.60;;;;;;10502760;28;20170;-56
2021/04/25 14:15:30;;;;;;;1.15;0.70;;;17.80;56.60;;;;;;10484826;28;20025;-56
2021/04/25 14:20:31;;;;;;;2.53;1.30;;;17.80;56.60;;;;;;10502220;28;20025;-56
2021/04/25 14:25:31;;;;;;;1.77;0.80;;;17.80;56.60;;;;;;10502318;28;20059;-56
2021/04/25 14:30:34;;;;;;;1.30;0.57;;;17.80;56.60;;;;;;10501975;28;20554;-55
2021/04/25 14:35:35;;;;;;;1.85;0.82;;;17.80;56.50;;;;;;10501681;28;20040;-56
2021/04/25 14:40:36;;;;;;;1.05;0.73;;;17.80;56.60;;;;;;10501545;28;20029;-56
2021/04/25 14:45:36;;;;;;;1.33;0.70;;;17.80;56.60;;;;;;10483269;28;20422;-55
2021/04/25 14:50:38;;;;;;;0.80;0.50;;;17.80;56.60;;;;;;10501080;28;20032;-55
2021/04/25 14:55:39;;;;;;;1.73;0.82;;;17.80;56.60;;;;;;10499820;28;20036;-55
2021/04/25 15:00:40;;;;;;;0.88;0.55;;;17.80;56.60;;;;;;10500877;28;20029;-56
2021/04/25 15:05:42;;;;;;;0.50;0.40;;;17.80;56.60;;;;;;10500508;28;20024;-54
2021/04/25 15:10:42;;;;;;;2.33;0.90;;;17.80;56.60;;;;;;10482523;28;20025;-56
2021/04/25 15:15:43;;;;;;;1.45;0.80;;;17.80;56.60;;;;;;10500614;28;20476;-56
2021/04/25 15:20:44;;;;;;;1.27;0.82;;;17.80;56.60;;;;;;10499755;28;20381;-55
2021/04/25 15:25:45;;;;;;;1.48;0.80;;;17.80;56.60;;;;;;10499650;28;20032;-55
2021/04/25 15:30:46;;;;;;;1.23;0.50;;;17.80;56.70;;;;;;10499569;28;20119;-56
2021/04/25 15:35:46;;;;;;;0.88;0.60;;;17.80;56.60;;;;;;10472218;28;20024;-58
2021/04/25 15:40:47;;;;;;;1.85;0.68;;;17.80;56.60;;;;;;10481392;28;20032;-56
2021/04/25 15:45:51;;;;;;;1.45;0.80;;;17.80;56.70;;;;;;10498761;28;20045;-62
2021/04/25 15:50:52;;;;;;;0.88;0.60;;;17.80;56.70;;;;;;10494937;28;20040;-62
2021/04/25 15:55:53;;;;;;;0.93;0.60;;;17.80;56.70;;;;;;10498653;28;20377;-61
2021/04/25 16:00:54;;;;;;;1.05;0.57;;;17.80;56.60;;;;;;10498768;28;20032;-61
2021/04/25 16:05:55;;;;;;;1.48;0.80;;;17.80;56.60;;;;;;10498375;28;20021;-62
2021/04/25 16:10:56;;;;;;;1.02;0.70;;;17.80;57.30;;;;;;10497903;28;20520;-61
2021/04/25 16:15:56;;;;;;;2.40;0.90;;;17.80;56.70;;;;;;10498208;28;20029;-62
2021/04/25 16:20:57;;;;;;;1.40;0.60;;;17.80;56.60;;;;;;10497644;28;20025;-61
2021/04/25 16:25:58;;;;;;;1.38;1.00;;;17.80;56.70;;;;;;10497899;28;20017;-62
2021/04/25 16:30:59;;;;;;;0.90;0.50;;;17.80;56.70;;;;;;10497272;28;20047;-62
2021/04/25 16:36:00;;;;;;;1.42;0.60;;;17.80;56.60;;;;;;10496959;28;20421;-61
2021/04/25 16:41:01;;;;;;;1.05;0.52;;;17.70;56.50;;;;;;10479330;28;20428;-62
2021/04/25 16:46:01;;;;;;;1.48;0.60;;;17.80;56.60;;;;;;10497156;28;20102;-62
2021/04/25 16:51:03;;;;;;;0.80;0.60;;;17.80;56.60;;;;;;10496866;28;20032;-62
2021/04/25 16:56:05;;;;;;;0.73;0.60;;;17.80;56.60;;;;;;10496819;28;20063;-62
2021/04/25 17:01:05;;;;;;;0.98;0.60;;;17.70;56.50;;;;;;10496350;28;20032;-61
2021/04/25 17:06:06;;;;;;;1.83;0.50;;;17.80;56.60;;;;;;10496950;28;20032;-61
2021/04/25 17:11:07;;;;;;;2.05;1.02;;;17.70;56.50;;;;;;10496397;28;20033;-61
2021/04/25 17:16:09;;;;;;;1.17;0.77;;;17.70;56.40;;;;;;10496392;28;20028;-61
2021/04/25 17:21:09;;;;;;;0.98;0.60;;;17.70;56.40;;;;;;10483281;28;20042;-62
2021/04/25 17:26:10;;;;;;;1.15;0.80;;;17.70;56.40;;;;;;10486534;28;20217;-62
2021/04/25 17:31:11;;;;;;;1.30;0.68;;;17.70;56.40;;;;;;10504600;28;20055;-62
2021/04/25 17:36:12;;;;;;;1.35;0.70;;;17.70;56.40;;;;;;10480894;28;20384;-61
2021/04/25 17:41:12;;;;;;;1.23;0.70;;;17.70;56.40;;;;;;10485785;28;20030;-62
2021/04/25 17:46:14;;;;;;;1.15;0.50;;;17.70;56.50;;;;;;10503773;28;20141;-62
2021/04/25 17:51:15;;;;;;;0.90;0.70;;;17.70;56.40;;;;;;10503440;28;20392;-62
2021/04/25 17:56:16;;;;;;;1.75;0.57;;;17.70;56.30;;;;;;10503610;28;20381;-62
2021/04/25 18:01:16;;;;;;;0.52;0.50;;;17.70;56.30;;;;;;10503088;28;20039;-62
2021/04/25 18:06:17;;;;;;;1.40;0.65;;;17.70;56.30;;;;;;10502800;28;20043;-62
2021/04/25 18:11:18;;;;;;;0.70;0.50;;;17.60;56.30;;;;;;10502802;28;20526;-62
2021/04/25 18:16:18;;;;;;;0.73;0.50;;;17.60;56.30;;;;;;10502847;28;20024;-62
2021/04/25 18:21:19;;;;;;;1.00;0.52;;;17.60;56.30;;;;;;10502296;28;20036;-62
2021/04/25 18:26:20;;;;;;;1.35;0.70;;;17.60;56.30;;;;;;10502178;28;20025;-61
2021/04/25 18:31:21;;;;;;;0.80;0.60;;;17.60;56.30;;;;;;10501551;28;20028;-62
2021/04/25 18:36:23;;;;;;;0.65;0.60;;;17.60;56.30;;;;;;10501775;28;20390;-61
2021/04/25 18:41:26;;;;;;;1.13;0.70;;;17.60;56.40;;;;;;10501691;28;20033;-62
2021/04/25 18:46:26;;;;;;;1.45;0.70;;;17.60;56.90;;;;;;10501175;28;20059;-61
2021/04/25 18:51:27;;;;;;;1.00;0.55;;;17.50;56.20;;;;;;10470272;28;20099;-61
2021/04/25 18:56:28;;;;;;;0.98;0.60;;;17.60;56.30;;;;;;10501114;28;20037;-62
2021/04/25 19:01:29;;;;;;;1.30;0.80;;;17.50;56.20;;;;;;10499336;28;20035;-61
2021/04/25 19:06:30;;;;;;;1.10;0.70;;;17.60;56.20;;;;;;10500689;28;20141;-62
2021/04/25 19:11:31;;;;;;;0.60;0.50;;;17.60;56.20;;;;;;10482543;28;20169;-61
2021/04/25 19:16:32;;;;;;;1.40;0.77;;;17.60;56.10;;;;;;10514211;28;20020;-61
2021/04/25 19:21:34;;;;;;;1.38;0.70;;;17.60;56.10;;;;;;10500208;28;20028;-62
2021/04/25 19:26:34;;;;;;;1.25;0.70;;;17.60;56.00;;;;;;10500218;28;20020;-62
2021/04/25 19:31:35;;;;;;;0.57;0.52;;;17.60;55.90;;;;;;10500729;28;20027;-62
2021/04/25 19:36:36;;;;;;;1.15;0.73;;;17.60;56.00;;;;;;10499301;28;20040;-61
2021/04/25 19:41:37;;;;;;;1.33;1.23;;;17.50;56.20;;;;;;10480032;28;20385;-62
2021/04/25 19:46:38;;;;;;;1.10;0.55;;;17.50;56.20;;;;;;10497272;28;20044;-62
2021/04/25 19:51:39;;;;;;;1.02;0.80;;;17.50;56.20;;;;;;10498302;28;20043;-62
2021/04/25 19:56:40;;;;;;;1.63;0.63;;;17.50;56.10;;;;;;10498304;28;20104;-62
2021/04/25 20:01:40;;;;;;;1.05;0.60;;;17.50;56.20;;;;;;10498252;28;20035;-62
2021/04/25 20:06:41;;;;;;;0.98;0.60;;;17.50;56.20;;;;;;10501183;28;20020;-62
2021/04/25 20:11:42;;;;;;;1.55;0.77;;;17.50;56.10;;;;;;10508520;28;20032;-62
2021/04/25 20:16:42;;;;;;;0.75;0.40;;;17.50;56.20;;;;;;10497561;28;20028;-62
2021/04/25 20:21:43;;;;;;;1.13;0.60;;;17.50;56.10;;;;;;10497381;28;20032;-62
2021/04/25 20:26:44;;;;;;;1.33;0.70;;;17.50;56.10;;;;;;10497089;28;20070;-61
2021/04/25 20:31:45;;;;;;;1.02;0.60;;;17.50;56.10;;;;;;10497391;28;20036;-62
2021/04/25 20:36:46;;;;;;;1.20;0.50;;;17.50;56.00;;;;;;10496739;28;20532;-61
2021/04/25 20:41:47;;;;;;;2.03;0.63;;;17.50;56.00;;;;;;10496646;28;20047;-61
2021/04/25 20:46:47;;;;;;;0.75;0.50;;;17.40;55.80;;;;;;10496534;28;20241;-60
2021/04/25 20:51:48;;;;;;;1.15;0.90;;;17.40;55.90;;;;;;10478436;28;20107;-60
2021/04/25 20:56:49;;;;;;;1.25;0.70;;;17.40;55.90;;;;;;10508797;28;20035;-61
2021/04/25 21:01:50;;;;;;;0.60;0.47;;;17.40;55.80;;;;;;10478490;28;20116;-60
2021/04/25 21:06:51;;;;;;;1.45;0.60;;;17.40;55.80;;;;;;10478118;28;20473;-61
2021/04/25 21:11:51;;;;;;;2.83;0.85;;;17.40;55.80;;;;;;10495859;28;20032;-61
2021/04/25 21:16:52;;;;;;;1.85;0.70;;;17.40;55.70;;;;;;10496633;28;20056;-62
2021/04/25 21:21:53;;;;;;;1.00;0.60;;;17.40;55.70;;;;;;10495967;28;20039;-62
2021/04/25 21:26:54;;;;;;;1.13;0.68;;;17.40;55.60;;;;;;10477794;28;20469;-61
2021/04/25 21:31:55;;;;;;;1.20;0.98;;;17.30;56.20;;;;;;10495762;28;20542;-62
2021/04/25 21:36:56;;;;;;;0.85;0.57;;;17.40;55.60;;;;;;10495623;28;20041;-61
2021/04/25 21:41:56;;;;;;;0.70;0.50;;;17.30;55.60;;;;;;10465834;28;20388;-62
2021/04/25 21:46:57;;;;;;;3.70;0.75;;;17.30;55.50;;;;;;10495128;28;20051;-62
2021/04/25 21:51:58;;;;;;;0.73;0.60;;;17.30;55.50;;;;;;10495619;28;20033;-62
2021/04/25 21:56:58;;;;;;;0.80;0.50;;;17.40;55.60;;;;;;10495146;28;20032;-61
2021/04/25 22:02:00;;;;;;;1.15;0.70;;;17.30;55.50;;;;;;10469808;28;20031;-61
2021/04/25 22:07:01;;;;;;;1.27;0.70;;;17.30;55.60;;;;;;10481236;28;20048;-61
2021/04/25 22:12:02;;;;;;;1.25;0.82;;;17.30;55.50;;;;;;10502262;28;20174;-62
2021/04/25 22:17:02;;;;;;;1.45;0.60;;;17.30;55.50;;;;;;10502324;28;20040;-61
2021/04/25 22:22:03;;;;;;;1.42;0.70;;;17.30;55.50;;;;;;10515404;28;20115;-61
2021/04/25 22:27:04;;;;;;;0.60;0.50;;;17.30;55.60;;;;;;10501793;28;20531;-61
2021/04/25 22:32:05;;;;;;;1.27;0.80;;;17.30;55.50;;;;;;10483974;28;20036;-62
2021/04/25 22:37:06;;;;;;;1.17;0.52;;;17.30;55.50;;;;;;10483453;28;20063;-61
2021/04/25 22:42:07;;;;;;;0.98;0.70;;;17.30;55.60;;;;;;10501629;28;20024;-61
2021/04/25 22:47:08;;;;;;;1.35;0.85;;;17.20;55.50;;;;;;10500890;28;20389;-61
2021/04/25 22:52:08;;;;;;;1.10;0.50;;;17.20;55.40;;;;;;10483380;28;20476;-62
2021/04/25 22:57:09;;;;;;;1.83;0.50;;;17.20;55.40;;;;;;10482802;28;20103;-62
2021/04/25 23:02:10;;;;;;;1.83;0.63;;;17.20;55.40;;;;;;10500326;28;20029;-62
2021/04/25 23:07:11;;;;;;;0.63;0.50;;;17.20;55.40;;;;;;10501068;28;20027;-62
2021/04/25 23:12:12;;;;;;;0.80;0.50;;;17.20;55.40;;;;;;10501139;28;20047;-61
2021/04/25 23:17:13;;;;;;;0.80;0.60;;;17.20;55.40;;;;;;10499004;28;20035;-62
2021/04/25 23:22:13;;;;;;;1.17;0.60;;;17.20;55.40;;;;;;10499866;28;20048;-61
2021/04/25 23:27:14;;;;;;;0.85;0.50;;;17.20;55.40;;;;;;10513151;28;20031;-61
2021/04/25 23:32:15;;;;;;;1.20;0.80;;;17.20;55.30;;;;;;10499394;28;20036;-58
2021/04/25 23:37:16;;;;;;;1.63;0.68;;;17.20;55.20;;;;;;10499627;28;20516;-61
2021/04/25 23:42:16;;;;;;;0.60;0.45;;;17.10;55.20;;;;;;10480933;28;20031;-62
2021/04/25 23:47:18;;;;;;;0.70;0.50;;;17.10;55.10;;;;;;10498553;28;20045;-61
2021/04/25 23:52:19;;;;;;;1.67;0.50;;;17.10;55.20;;;;;;10498420;28;20036;-61
2021/04/25 23:57:19;;;;;;;0.68;0.60;;;17.10;55.20;;;;;;10498167;28;20499;-60
